< < Back
Terminal Aerodrome Forecast


Current Version              Previous Versions:   1  2  3  4  5  6  7  8  9  

Terminal Aerodrome Forecast

742
FTAK31 PAJN 240200 AAA
TAFAGS
TAF AMD
PAGS 240249Z 2403/2424 24004KT P6SM -SHRA SCT015 OVC025
     FM240600 VRB02KT P6SM VCSH SCT025 BKN035
     FM241800 26004KT P6SM SCT025 BKN040
      AMD LTD TO CLD VIS AND WIND=



Latest METAR

685
SAUS70 KWBC 240400
MTRAGS
METAR KAGS 240353Z 00000KT 10SM CLR 12/09 A2993 RMK AO2 SLP133
T01220094


USA.gov is the U.S. government's official web portal to all federal, state and local government web resources and services.